Cambridge, Kansas
Current Conditions -  °F | °C
As of 6:54 PM on Friday 24 Oct 2014 (Local Time) from KWLD Reporting Station
Clear Clear  
Wind Chill: 71°   Ceiling: Unl
Heat Index: 71°   Visibility: 10mi
Dew Point: 63°   Wind: 6mph
Humidity: 75%   Direction: 210°SSW
Pressure: 30.01"   Gusts: NA
Location:  37.32°N, 96.66°W
Report Text: KWLD 242354Z AUTO 21005KT 10SM CLR 22/17 A3001 RMK AO2 SLP156 T02170172 10272 20217 55001
Loading
Personal Weather Stations






























Interactive Weather Map
Tropical Storm Tracking
New forecast layout! Learn more

10-Day Weather Forecast

Advertisements
Track Severe Weather on mobile